sensor_id;sensor_type;location;lat;lon;timestamp;P1;durP1;ratioP1;P2;durP2;ratioP2
71600;SDS011;59446;52.192;4.628;2022-07-19T00:00:04;9.32;;;4.70;;
71600;SDS011;59446;52.192;4.628;2022-07-19T00:02:33;10.57;;;4.57;;
71600;SDS011;59446;52.192;4.628;2022-07-19T00:04:59;9.38;;;4.18;;
71600;SDS011;59446;52.192;4.628;2022-07-19T00:07:24;8.33;;;4.50;;
71600;SDS011;59446;52.192;4.628;2022-07-19T00:09:50;10.70;;;4.90;;
71600;SDS011;59446;52.192;4.628;2022-07-19T00:12:15;8.57;;;4.72;;
71600;SDS011;59446;52.192;4.628;2022-07-19T00:14:41;9.13;;;4.77;;
71600;SDS011;59446;52.192;4.628;2022-07-19T00:17:06;9.53;;;4.90;;
71600;SDS011;59446;52.192;4.628;2022-07-19T00:19:32;11.13;;;5.23;;
71600;SDS011;59446;52.192;4.628;2022-07-19T00:21:57;7.90;;;4.27;;
71600;SDS011;59446;52.192;4.628;2022-07-19T00:24:23;9.18;;;4.03;;
71600;SDS011;59446;52.192;4.628;2022-07-19T00:26:48;8.80;;;4.27;;
71600;SDS011;59446;52.192;4.628;2022-07-19T00:29:14;10.80;;;4.43;;
71600;SDS011;59446;52.192;4.628;2022-07-19T00:31:39;10.07;;;4.17;;
71600;SDS011;59446;52.192;4.628;2022-07-19T00:34:04;8.02;;;4.05;;
71600;SDS011;59446;52.192;4.628;2022-07-19T00:36:30;8.63;;;4.37;;
71600;SDS011;59446;52.192;4.628;2022-07-19T00:38:55;11.50;;;4.20;;
71600;SDS011;59446;52.192;4.628;2022-07-19T00:41:21;8.13;;;4.40;;
71600;SDS011;59446;52.192;4.628;2022-07-19T00:43:46;10.88;;;4.47;;
71600;SDS011;59446;52.192;4.628;2022-07-19T00:46:12;10.30;;;5.20;;
71600;SDS011;59446;52.192;4.628;2022-07-19T00:48:42;10.53;;;5.10;;
71600;SDS011;59446;52.192;4.628;2022-07-19T00:51:08;10.05;;;4.07;;
71600;SDS011;59446;52.192;4.628;2022-07-19T00:53:36;7.18;;;3.90;;
71600;SDS011;59446;52.192;4.628;2022-07-19T00:56:03;7.77;;;4.10;;
71600;SDS011;59446;52.192;4.628;2022-07-19T00:58:30;7.30;;;3.65;;
71600;SDS011;59446;52.192;4.628;2022-07-19T01:00:57;6.50;;;3.45;;
71600;SDS011;59446;52.192;4.628;2022-07-19T01:03:23;6.47;;;3.53;;
71600;SDS011;59446;52.192;4.628;2022-07-19T01:05:50;7.47;;;3.60;;
71600;SDS011;59446;52.192;4.628;2022-07-19T01:08:16;9.13;;;3.40;;
71600;SDS011;59446;52.192;4.628;2022-07-19T01:10:42;7.37;;;4.10;;
71600;SDS011;59446;52.192;4.628;2022-07-19T01:13:07;8.77;;;4.47;;
71600;SDS011;59446;52.192;4.628;2022-07-19T01:15:33;10.18;;;4.95;;
71600;SDS011;59446;52.192;4.628;2022-07-19T01:17:58;9.20;;;4.70;;
71600;SDS011;59446;52.192;4.628;2022-07-19T01:20:24;8.47;;;4.20;;
71600;SDS011;59446;52.192;4.628;2022-07-19T01:22:50;7.65;;;4.15;;
71600;SDS011;59446;52.192;4.628;2022-07-19T01:25:15;8.77;;;4.20;;
71600;SDS011;59446;52.192;4.628;2022-07-19T01:27:42;13.70;;;4.77;;
71600;SDS011;59446;52.192;4.628;2022-07-19T01:30:13;9.37;;;4.57;;
71600;SDS011;59446;52.192;4.628;2022-07-19T01:32:40;8.90;;;5.03;;
71600;SDS011;59446;52.192;4.628;2022-07-19T01:35:06;9.60;;;4.50;;
71600;SDS011;59446;52.192;4.628;2022-07-19T01:37:33;8.90;;;3.97;;
71600;SDS011;59446;52.192;4.628;2022-07-19T01:39:58;7.28;;;4.40;;
71600;SDS011;59446;52.192;4.628;2022-07-19T01:42:24;8.27;;;4.63;;
71600;SDS011;59446;52.192;4.628;2022-07-19T01:44:49;9.67;;;4.73;;
71600;SDS011;59446;52.192;4.628;2022-07-19T01:47:15;10.70;;;5.55;;
71600;SDS011;59446;52.192;4.628;2022-07-19T01:49:40;9.23;;;4.93;;
71600;SDS011;59446;52.192;4.628;2022-07-19T01:52:06;9.00;;;4.97;;
71600;SDS011;59446;52.192;4.628;2022-07-19T01:54:32;10.88;;;5.28;;
71600;SDS011;59446;52.192;4.628;2022-07-19T01:56:58;11.13;;;5.38;;
71600;SDS011;59446;52.192;4.628;2022-07-19T01:59:24;8.97;;;4.33;;
71600;SDS011;59446;52.192;4.628;2022-07-19T02:01:49;12.03;;;5.30;;
71600;SDS011;59446;52.192;4.628;2022-07-19T02:04:14;9.38;;;5.00;;
71600;SDS011;59446;52.192;4.628;2022-07-19T02:06:40;10.23;;;5.13;;
71600;SDS011;59446;52.192;4.628;2022-07-19T02:09:05;9.97;;;5.47;;
71600;SDS011;59446;52.192;4.628;2022-07-19T02:11:31;9.90;;;5.00;;
71600;SDS011;59446;52.192;4.628;2022-07-19T02:14:07;10.40;;;5.47;;
71600;SDS011;59446;52.192;4.628;2022-07-19T02:16:34;9.35;;;5.82;;
71600;SDS011;59446;52.192;4.628;2022-07-19T02:19:01;10.07;;;5.53;;
71600;SDS011;59446;52.192;4.628;2022-07-19T02:21:27;8.95;;;5.13;;
71600;SDS011;59446;52.192;4.628;2022-07-19T02:23:52;12.67;;;5.73;;
71600;SDS011;59446;52.192;4.628;2022-07-19T02:26:17;9.63;;;5.50;;
71600;SDS011;59446;52.192;4.628;2022-07-19T02:28:43;10.20;;;5.10;;
71600;SDS011;59446;52.192;4.628;2022-07-19T02:31:08;8.47;;;4.40;;
71600;SDS011;59446;52.192;4.628;2022-07-19T02:33:34;7.47;;;4.40;;
71600;SDS011;59446;52.192;4.628;2022-07-19T02:35:59;8.07;;;4.63;;
71600;SDS011;59446;52.192;4.628;2022-07-19T02:38:25;9.30;;;4.40;;
71600;SDS011;59446;52.192;4.628;2022-07-19T02:40:50;7.93;;;4.43;;
71600;SDS011;59446;52.192;4.628;2022-07-19T02:43:15;9.23;;;4.50;;
71600;SDS011;59446;52.192;4.628;2022-07-19T02:45:41;8.23;;;4.30;;
71600;SDS011;59446;52.192;4.628;2022-07-19T02:48:08;10.40;;;4.50;;
71600;SDS011;59446;52.192;4.628;2022-07-19T02:50:34;7.40;;;4.07;;
71600;SDS011;59446;52.192;4.628;2022-07-19T02:53:00;9.93;;;4.82;;
71600;SDS011;59446;52.192;4.628;2022-07-19T02:55:26;10.23;;;4.55;;
71600;SDS011;59446;52.192;4.628;2022-07-19T02:57:51;7.30;;;3.90;;
71600;SDS011;59446;52.192;4.628;2022-07-19T03:00:17;6.77;;;3.53;;
71600;SDS011;59446;52.192;4.628;2022-07-19T03:02:42;9.43;;;4.60;;
71600;SDS011;59446;52.192;4.628;2022-07-19T03:05:08;9.63;;;5.38;;
71600;SDS011;59446;52.192;4.628;2022-07-19T03:07:34;7.73;;;3.87;;
71600;SDS011;59446;52.192;4.628;2022-07-19T03:10:00;8.20;;;4.60;;
71600;SDS011;59446;52.192;4.628;2022-07-19T03:12:26;5.37;;;3.13;;
71600;SDS011;59446;52.192;4.628;2022-07-19T03:14:51;7.75;;;3.60;;
71600;SDS011;59446;52.192;4.628;2022-07-19T03:17:16;9.53;;;4.37;;
71600;SDS011;59446;52.192;4.628;2022-07-19T03:19:42;9.13;;;3.67;;
71600;SDS011;59446;52.192;4.628;2022-07-19T03:22:07;9.03;;;4.03;;
71600;SDS011;59446;52.192;4.628;2022-07-19T03:24:33;10.27;;;3.17;;
71600;SDS011;59446;52.192;4.628;2022-07-19T03:26:58;6.40;;;3.00;;
71600;SDS011;59446;52.192;4.628;2022-07-19T03:29:23;8.37;;;3.90;;
71600;SDS011;59446;52.192;4.628;2022-07-19T03:31:49;7.53;;;3.77;;
71600;SDS011;59446;52.192;4.628;2022-07-19T03:34:14;7.28;;;4.03;;
71600;SDS011;59446;52.192;4.628;2022-07-19T03:36:40;7.07;;;4.50;;
71600;SDS011;59446;52.192;4.628;2022-07-19T03:39:05;10.97;;;4.50;;
71600;SDS011;59446;52.192;4.628;2022-07-19T03:41:31;8.20;;;4.80;;
71600;SDS011;59446;52.192;4.628;2022-07-19T03:43:56;10.13;;;4.07;;
71600;SDS011;59446;52.192;4.628;2022-07-19T03:46:22;8.43;;;3.80;;
71600;SDS011;59446;52.192;4.628;2022-07-19T03:48:47;8.37;;;4.07;;
71600;SDS011;59446;52.192;4.628;2022-07-19T03:51:13;7.53;;;4.38;;
71600;SDS011;59446;52.192;4.628;2022-07-19T03:53:39;8.93;;;4.50;;
71600;SDS011;59446;52.192;4.628;2022-07-19T03:56:05;10.55;;;4.72;;
71600;SDS011;59446;52.192;4.628;2022-07-19T03:58:30;10.27;;;4.20;;
71600;SDS011;59446;52.192;4.628;2022-07-19T04:00:56;8.77;;;4.67;;
71600;SDS011;59446;52.192;4.628;2022-07-19T04:03:22;8.13;;;3.65;;
71600;SDS011;59446;52.192;4.628;2022-07-19T04:05:47;7.93;;;4.23;;
71600;SDS011;59446;52.192;4.628;2022-07-19T04:08:13;9.07;;;4.85;;
71600;SDS011;59446;52.192;4.628;2022-07-19T04:10:39;9.77;;;4.40;;
71600;SDS011;59446;52.192;4.628;2022-07-19T04:13:05;9.65;;;5.10;;
71600;SDS011;59446;52.192;4.628;2022-07-19T04:15:31;8.68;;;5.00;;
71600;SDS011;59446;52.192;4.628;2022-07-19T04:17:57;7.73;;;4.10;;
71600;SDS011;59446;52.192;4.628;2022-07-19T04:20:22;9.97;;;4.33;;
71600;SDS011;59446;52.192;4.628;2022-07-19T04:22:48;8.60;;;4.07;;
71600;SDS011;59446;52.192;4.628;2022-07-19T04:25:13;9.00;;;4.30;;
71600;SDS011;59446;52.192;4.628;2022-07-19T04:27:39;8.47;;;4.03;;
71600;SDS011;59446;52.192;4.628;2022-07-19T04:30:04;7.23;;;3.90;;
71600;SDS011;59446;52.192;4.628;2022-07-19T04:32:31;8.18;;;4.65;;
71600;SDS011;59446;52.192;4.628;2022-07-19T04:34:57;8.32;;;4.70;;
71600;SDS011;59446;52.192;4.628;2022-07-19T04:37:22;8.87;;;4.17;;
71600;SDS011;59446;52.192;4.628;2022-07-19T04:39:48;7.63;;;4.23;;
71600;SDS011;59446;52.192;4.628;2022-07-19T04:42:13;13.98;;;5.13;;
71600;SDS011;59446;52.192;4.628;2022-07-19T04:44:38;9.23;;;4.60;;
71600;SDS011;59446;52.192;4.628;2022-07-19T04:47:04;8.93;;;4.30;;
71600;SDS011;59446;52.192;4.628;2022-07-19T04:49:29;7.87;;;4.03;;
71600;SDS011;59446;52.192;4.628;2022-07-19T04:51:55;8.05;;;3.90;;
71600;SDS011;59446;52.192;4.628;2022-07-19T04:54:20;9.30;;;4.63;;
71600;SDS011;59446;52.192;4.628;2022-07-19T04:56:46;8.80;;;4.53;;
71600;SDS011;59446;52.192;4.628;2022-07-19T04:59:11;9.20;;;4.70;;
71600;SDS011;59446;52.192;4.628;2022-07-19T05:01:36;7.80;;;4.20;;
71600;SDS011;59446;52.192;4.628;2022-07-19T05:04:02;6.28;;;3.42;;
71600;SDS011;59446;52.192;4.628;2022-07-19T05:06:27;8.90;;;3.83;;
71600;SDS011;59446;52.192;4.628;2022-07-19T05:08:53;7.87;;;3.77;;
71600;SDS011;59446;52.192;4.628;2022-07-19T05:11:19;8.07;;;4.00;;
71600;SDS011;59446;52.192;4.628;2022-07-19T05:13:45;8.17;;;3.50;;
71600;SDS011;59446;52.192;4.628;2022-07-19T05:16:10;5.93;;;2.92;;
71600;SDS011;59446;52.192;4.628;2022-07-19T05:18:36;8.80;;;4.03;;
71600;SDS011;59446;52.192;4.628;2022-07-19T05:21:01;8.70;;;3.67;;
71600;SDS011;59446;52.192;4.628;2022-07-19T05:23:27;7.80;;;3.43;;
71600;SDS011;59446;52.192;4.628;2022-07-19T05:25:52;7.17;;;2.97;;
71600;SDS011;59446;52.192;4.628;2022-07-19T05:28:18;8.50;;;3.57;;
71600;SDS011;59446;52.192;4.628;2022-07-19T05:30:43;8.35;;;4.28;;
71600;SDS011;59446;52.192;4.628;2022-07-19T05:33:09;9.10;;;3.97;;
71600;SDS011;59446;52.192;4.628;2022-07-19T05:35:34;9.47;;;4.13;;
71600;SDS011;59446;52.192;4.628;2022-07-19T05:38:00;6.80;;;3.90;;
71600;SDS011;59446;52.192;4.628;2022-07-19T05:40:25;7.53;;;3.97;;
71600;SDS011;59446;52.192;4.628;2022-07-19T05:42:50;8.73;;;4.03;;
71600;SDS011;59446;52.192;4.628;2022-07-19T05:45:16;8.53;;;4.07;;
71600;SDS011;59446;52.192;4.628;2022-07-19T05:47:41;10.07;;;4.00;;
71600;SDS011;59446;52.192;4.628;2022-07-19T05:50:07;7.13;;;3.90;;
71600;SDS011;59446;52.192;4.628;2022-07-19T05:52:33;8.27;;;4.35;;
71600;SDS011;59446;52.192;4.628;2022-07-19T05:54:58;8.03;;;3.90;;
71600;SDS011;59446;52.192;4.628;2022-07-19T05:57:24;7.43;;;3.90;;
71600;SDS011;59446;52.192;4.628;2022-07-19T05:59:49;6.83;;;3.53;;
71600;SDS011;59446;52.192;4.628;2022-07-19T06:02:14;6.10;;;3.23;;
71600;SDS011;59446;52.192;4.628;2022-07-19T06:04:41;9.38;;;4.40;;
71600;SDS011;59446;52.192;4.628;2022-07-19T06:07:07;6.90;;;3.50;;
71600;SDS011;59446;52.192;4.628;2022-07-19T06:09:32;6.90;;;3.95;;
71600;SDS011;59446;52.192;4.628;2022-07-19T06:11:58;6.97;;;4.00;;
71600;SDS011;59446;52.192;4.628;2022-07-19T06:14:23;8.40;;;3.97;;
71600;SDS011;59446;52.192;4.628;2022-07-19T06:16:48;6.73;;;4.00;;
71600;SDS011;59446;52.192;4.628;2022-07-19T06:19:14;8.38;;;4.40;;
71600;SDS011;59446;52.192;4.628;2022-07-19T06:21:39;7.33;;;3.77;;
71600;SDS011;59446;52.192;4.628;2022-07-19T06:24:05;10.13;;;4.70;;
71600;SDS011;59446;52.192;4.628;2022-07-19T06:26:30;8.03;;;4.47;;
71600;SDS011;59446;52.192;4.628;2022-07-19T06:28:56;6.80;;;4.10;;
71600;SDS011;59446;52.192;4.628;2022-07-19T06:31:22;7.97;;;4.17;;
71600;SDS011;59446;52.192;4.628;2022-07-19T06:33:48;7.43;;;4.20;;
71600;SDS011;59446;52.192;4.628;2022-07-19T06:36:15;7.30;;;4.13;;
71600;SDS011;59446;52.192;4.628;2022-07-19T06:38:41;10.20;;;4.47;;
71600;SDS011;59446;52.192;4.628;2022-07-19T06:41:07;6.93;;;4.28;;
71600;SDS011;59446;52.192;4.628;2022-07-19T06:43:33;7.18;;;3.80;;
71600;SDS011;59446;52.192;4.628;2022-07-19T06:45:59;8.40;;;4.77;;
71600;SDS011;59446;52.192;4.628;2022-07-19T06:48:24;9.68;;;4.88;;
71600;SDS011;59446;52.192;4.628;2022-07-19T06:50:50;9.13;;;4.63;;
71600;SDS011;59446;52.192;4.628;2022-07-19T06:53:15;10.57;;;4.70;;
71600;SDS011;59446;52.192;4.628;2022-07-19T06:55:41;8.47;;;4.50;;
71600;SDS011;59446;52.192;4.628;2022-07-19T06:58:06;9.67;;;4.37;;
71600;SDS011;59446;52.192;4.628;2022-07-19T07:00:32;8.33;;;4.20;;
71600;SDS011;59446;52.192;4.628;2022-07-19T07:02:58;9.05;;;4.15;;
71600;SDS011;59446;52.192;4.628;2022-07-19T07:05:23;9.40;;;4.53;;
71600;SDS011;59446;52.192;4.628;2022-07-19T07:07:49;10.88;;;4.82;;
71600;SDS011;59446;52.192;4.628;2022-07-19T07:10:16;9.87;;;4.37;;
71600;SDS011;59446;52.192;4.628;2022-07-19T07:12:42;7.70;;;4.47;;
71600;SDS011;59446;52.192;4.628;2022-07-19T07:15:07;7.27;;;3.80;;
71600;SDS011;59446;52.192;4.628;2022-07-19T07:17:34;11.63;;;3.67;;
71600;SDS011;59446;52.192;4.628;2022-07-19T07:20:00;9.63;;;4.00;;
71600;SDS011;59446;52.192;4.628;2022-07-19T07:22:26;7.00;;;3.73;;
71600;SDS011;59446;52.192;4.628;2022-07-19T07:24:52;8.10;;;4.00;;
71600;SDS011;59446;52.192;4.628;2022-07-19T07:27:17;9.53;;;4.13;;
71600;SDS011;59446;52.192;4.628;2022-07-19T07:29:43;9.10;;;3.50;;
71600;SDS011;59446;52.192;4.628;2022-07-19T07:32:08;6.60;;;3.37;;
71600;SDS011;59446;52.192;4.628;2022-07-19T07:34:34;8.07;;;2.97;;
71600;SDS011;59446;52.192;4.628;2022-07-19T07:36:59;6.63;;;3.07;;
71600;SDS011;59446;52.192;4.628;2022-07-19T07:39:24;7.33;;;3.20;;
71600;SDS011;59446;52.192;4.628;2022-07-19T07:41:50;4.50;;;2.63;;
71600;SDS011;59446;52.192;4.628;2022-07-19T07:44:15;8.10;;;3.33;;
71600;SDS011;59446;52.192;4.628;2022-07-19T07:46:41;9.17;;;3.67;;
71600;SDS011;59446;52.192;4.628;2022-07-19T07:49:06;6.13;;;3.40;;
71600;SDS011;59446;52.192;4.628;2022-07-19T07:51:32;6.73;;;3.23;;
71600;SDS011;59446;52.192;4.628;2022-07-19T07:53:58;5.50;;;2.50;;
71600;SDS011;59446;52.192;4.628;2022-07-19T07:56:25;5.95;;;2.40;;
71600;SDS011;59446;52.192;4.628;2022-07-19T07:58:50;6.07;;;2.72;;
71600;SDS011;59446;52.192;4.628;2022-07-19T08:01:16;5.50;;;2.77;;
71600;SDS011;59446;52.192;4.628;2022-07-19T08:03:41;5.18;;;2.60;;
71600;SDS011;59446;52.192;4.628;2022-07-19T08:06:07;4.03;;;2.20;;
71600;SDS011;59446;52.192;4.628;2022-07-19T08:08:33;9.10;;;3.13;;
71600;SDS011;59446;52.192;4.628;2022-07-19T08:10:58;4.72;;;2.50;;
71600;SDS011;59446;52.192;4.628;2022-07-19T08:13:24;5.87;;;2.83;;
71600;SDS011;59446;52.192;4.628;2022-07-19T08:15:49;4.33;;;2.13;;
71600;SDS011;59446;52.192;4.628;2022-07-19T08:18:15;5.82;;;2.60;;
71600;SDS011;59446;52.192;4.628;2022-07-19T08:20:41;4.35;;;2.47;;
71600;SDS011;59446;52.192;4.628;2022-07-19T08:23:07;9.63;;;2.70;;
71600;SDS011;59446;52.192;4.628;2022-07-19T08:25:33;5.18;;;2.45;;
71600;SDS011;59446;52.192;4.628;2022-07-19T08:27:59;5.03;;;2.27;;
71600;SDS011;59446;52.192;4.628;2022-07-19T08:30:25;5.97;;;3.17;;
71600;SDS011;59446;52.192;4.628;2022-07-19T08:32:50;4.72;;;2.80;;
71600;SDS011;59446;52.192;4.628;2022-07-19T08:35:16;4.93;;;2.77;;
71600;SDS011;59446;52.192;4.628;2022-07-19T08:37:41;4.63;;;2.37;;
71600;SDS011;59446;52.192;4.628;2022-07-19T08:40:07;7.37;;;2.40;;
71600;SDS011;59446;52.192;4.628;2022-07-19T08:42:33;4.50;;;2.40;;
71600;SDS011;59446;52.192;4.628;2022-07-19T08:45:00;5.93;;;2.50;;
71600;SDS011;59446;52.192;4.628;2022-07-19T08:47:28;6.57;;;2.67;;
71600;SDS011;59446;52.192;4.628;2022-07-19T08:49:54;5.95;;;2.88;;
71600;SDS011;59446;52.192;4.628;2022-07-19T08:52:19;6.33;;;2.73;;
71600;SDS011;59446;52.192;4.628;2022-07-19T08:54:46;8.18;;;2.80;;
71600;SDS011;59446;52.192;4.628;2022-07-19T08:57:12;5.05;;;2.65;;
71600;SDS011;59446;52.192;4.628;2022-07-19T08:59:56;5.78;;;3.28;;
71600;SDS011;59446;52.192;4.628;2022-07-19T09:02:24;6.83;;;2.90;;
71600;SDS011;59446;52.192;4.628;2022-07-19T09:05:00;5.70;;;2.95;;
71600;SDS011;59446;52.192;4.628;2022-07-19T09:07:27;5.83;;;3.27;;
71600;SDS011;59446;52.192;4.628;2022-07-19T09:09:53;6.15;;;3.00;;
71600;SDS011;59446;52.192;4.628;2022-07-19T09:12:59;4.55;;;2.63;;
71600;SDS011;59446;52.192;4.628;2022-07-19T09:15:35;5.63;;;2.97;;
71600;SDS011;59446;52.192;4.628;2022-07-19T09:18:23;4.50;;;2.50;;
71600;SDS011;59446;52.192;4.628;2022-07-19T09:20:52;6.53;;;3.03;;
71600;SDS011;59446;52.192;4.628;2022-07-19T09:23:20;5.97;;;2.75;;
71600;SDS011;59446;52.192;4.628;2022-07-19T09:25:47;4.13;;;2.60;;
71600;SDS011;59446;52.192;4.628;2022-07-19T09:28:16;5.15;;;2.78;;
71600;SDS011;59446;52.192;4.628;2022-07-19T09:30:43;7.07;;;2.80;;
71600;SDS011;59446;52.192;4.628;2022-07-19T09:35:56;5.45;;;2.65;;
71600;SDS011;59446;52.192;4.628;2022-07-19T09:38:30;5.10;;;2.78;;
71600;SDS011;59446;52.192;4.628;2022-07-19T09:43:31;6.33;;;3.17;;
71600;SDS011;59446;52.192;4.628;2022-07-19T09:49:11;4.53;;;2.50;;
71600;SDS011;59446;52.192;4.628;2022-07-19T09:51:39;4.90;;;2.83;;
71600;SDS011;59446;52.192;4.628;2022-07-19T09:54:07;4.85;;;3.03;;
71600;SDS011;59446;52.192;4.628;2022-07-19T09:56:35;5.00;;;3.28;;
71600;SDS011;59446;52.192;4.628;2022-07-19T09:59:02;6.23;;;3.00;;
71600;SDS011;59446;52.192;4.628;2022-07-19T10:01:27;6.05;;;2.70;;
71600;SDS011;59446;52.192;4.628;2022-07-19T10:03:55;5.93;;;3.27;;
71600;SDS011;59446;52.192;4.628;2022-07-19T10:06:23;5.15;;;2.80;;
71600;SDS011;59446;52.192;4.628;2022-07-19T10:08:50;6.68;;;3.05;;
71600;SDS011;59446;52.192;4.628;2022-07-19T10:11:16;4.93;;;2.50;;
71600;SDS011;59446;52.192;4.628;2022-07-19T10:13:42;5.70;;;2.70;;
71600;SDS011;59446;52.192;4.628;2022-07-19T10:16:09;6.30;;;2.93;;
71600;SDS011;59446;52.192;4.628;2022-07-19T10:18:44;4.40;;;2.80;;
71600;SDS011;59446;52.192;4.628;2022-07-19T10:21:28;4.85;;;2.50;;
71600;SDS011;59446;52.192;4.628;2022-07-19T10:23:55;5.50;;;2.88;;
71600;SDS011;59446;52.192;4.628;2022-07-19T10:26:33;4.57;;;2.30;;
71600;SDS011;59446;52.192;4.628;2022-07-19T10:29:09;5.27;;;2.97;;
71600;SDS011;59446;52.192;4.628;2022-07-19T10:31:42;7.35;;;2.60;;
71600;SDS011;59446;52.192;4.628;2022-07-19T10:34:09;4.65;;;2.40;;
71600;SDS011;59446;52.192;4.628;2022-07-19T10:36:46;5.25;;;2.90;;
71600;SDS011;59446;52.192;4.628;2022-07-19T10:52:34;7.65;;;2.90;;
71600;SDS011;59446;52.192;4.628;2022-07-19T10:55:46;4.10;;;2.47;;
71600;SDS011;59446;52.192;4.628;2022-07-19T10:57:52;4.85;;;2.70;;
71600;SDS011;59446;52.192;4.628;2022-07-19T11:00:30;4.40;;;2.50;;
71600;SDS011;59446;52.192;4.628;2022-07-19T11:05:55;6.43;;;2.80;;
71600;SDS011;59446;52.192;4.628;2022-07-19T11:11:13;4.55;;;2.75;;
71600;SDS011;59446;52.192;4.628;2022-07-19T11:13:45;5.40;;;2.90;;
71600;SDS011;59446;52.192;4.628;2022-07-19T11:16:12;5.43;;;2.78;;
71600;SDS011;59446;52.192;4.628;2022-07-19T11:18:38;5.25;;;2.70;;
71600;SDS011;59446;52.192;4.628;2022-07-19T11:21:05;5.20;;;2.50;;
71600;SDS011;59446;52.192;4.628;2022-07-19T11:23:32;5.90;;;2.45;;
71600;SDS011;59446;52.192;4.628;2022-07-19T11:28:37;7.95;;;2.80;;
71600;SDS011;59446;52.192;4.628;2022-07-19T11:33:59;4.38;;;2.50;;
71600;SDS011;59446;52.192;4.628;2022-07-19T11:36:25;4.55;;;2.50;;
71600;SDS011;59446;52.192;4.628;2022-07-19T11:38:53;5.27;;;2.73;;
71600;SDS011;59446;52.192;4.628;2022-07-19T11:41:28;6.05;;;2.92;;
71600;SDS011;59446;52.192;4.628;2022-07-19T11:43:56;5.35;;;2.78;;
71600;SDS011;59446;52.192;4.628;2022-07-19T11:46:28;5.23;;;2.27;;
71600;SDS011;59446;52.192;4.628;2022-07-19T11:49:00;5.15;;;2.47;;
71600;SDS011;59446;52.192;4.628;2022-07-19T11:51:26;6.55;;;2.70;;
71600;SDS011;59446;52.192;4.628;2022-07-19T11:53:54;8.10;;;3.08;;
71600;SDS011;59446;52.192;4.628;2022-07-19T11:56:21;5.50;;;2.50;;
71600;SDS011;59446;52.192;4.628;2022-07-19T11:58:51;5.82;;;2.38;;
71600;SDS011;59446;52.192;4.628;2022-07-19T12:03:52;4.50;;;2.30;;
71600;SDS011;59446;52.192;4.628;2022-07-19T12:06:33;4.72;;;2.40;;
71600;SDS011;59446;52.192;4.628;2022-07-19T12:09:06;5.20;;;2.38;;
71600;SDS011;59446;52.192;4.628;2022-07-19T12:11:46;8.33;;;2.83;;
71600;SDS011;59446;52.192;4.628;2022-07-19T12:14:21;4.63;;;2.20;;
71600;SDS011;59446;52.192;4.628;2022-07-19T12:16:47;3.95;;;2.20;;
71600;SDS011;59446;52.192;4.628;2022-07-19T12:19:14;5.15;;;2.40;;
71600;SDS011;59446;52.192;4.628;2022-07-19T12:21:42;9.33;;;2.17;;
71600;SDS011;59446;52.192;4.628;2022-07-19T12:24:10;4.68;;;2.30;;
71600;SDS011;59446;52.192;4.628;2022-07-19T12:26:36;4.13;;;2.38;;
71600;SDS011;59446;52.192;4.628;2022-07-19T12:29:15;5.53;;;2.60;;
71600;SDS011;59446;52.192;4.628;2022-07-19T12:31:45;4.68;;;2.35;;
71600;SDS011;59446;52.192;4.628;2022-07-19T12:34:12;3.67;;;2.10;;
71600;SDS011;59446;52.192;4.628;2022-07-19T12:36:38;8.40;;;2.73;;
71600;SDS011;59446;52.192;4.628;2022-07-19T12:39:04;5.40;;;2.60;;
71600;SDS011;59446;52.192;4.628;2022-07-19T12:41:29;5.27;;;2.60;;
71600;SDS011;59446;52.192;4.628;2022-07-19T12:43:55;3.85;;;2.28;;
71600;SDS011;59446;52.192;4.628;2022-07-19T12:46:20;4.03;;;2.47;;
71600;SDS011;59446;52.192;4.628;2022-07-19T12:48:46;3.90;;;2.27;;
71600;SDS011;59446;52.192;4.628;2022-07-19T12:51:11;7.33;;;2.83;;
71600;SDS011;59446;52.192;4.628;2022-07-19T12:53:37;7.40;;;3.15;;
71600;SDS011;59446;52.192;4.628;2022-07-19T12:56:02;3.80;;;2.37;;
71600;SDS011;59446;52.192;4.628;2022-07-19T12:58:28;6.53;;;2.53;;
71600;SDS011;59446;52.192;4.628;2022-07-19T13:01:12;7.18;;;2.72;;
71600;SDS011;59446;52.192;4.628;2022-07-19T13:03:38;4.30;;;2.40;;
71600;SDS011;59446;52.192;4.628;2022-07-19T13:06:05;5.15;;;2.60;;
71600;SDS011;59446;52.192;4.628;2022-07-19T13:08:30;4.75;;;2.63;;
71600;SDS011;59446;52.192;4.628;2022-07-19T13:10:56;4.90;;;2.90;;
71600;SDS011;59446;52.192;4.628;2022-07-19T13:13:23;4.63;;;2.50;;
71600;SDS011;59446;52.192;4.628;2022-07-19T13:15:51;4.93;;;2.87;;
71600;SDS011;59446;52.192;4.628;2022-07-19T13:18:17;5.47;;;2.67;;
71600;SDS011;59446;52.192;4.628;2022-07-19T13:20:43;4.60;;;2.80;;
71600;SDS011;59446;52.192;4.628;2022-07-19T13:23:09;4.90;;;2.57;;
71600;SDS011;59446;52.192;4.628;2022-07-19T13:25:34;6.45;;;2.60;;
71600;SDS011;59446;52.192;4.628;2022-07-19T13:28:00;6.03;;;2.60;;
71600;SDS011;59446;52.192;4.628;2022-07-19T13:30:26;11.70;;;3.27;;
71600;SDS011;59446;52.192;4.628;2022-07-19T13:32:51;6.07;;;3.23;;
71600;SDS011;59446;52.192;4.628;2022-07-19T13:35:16;5.77;;;2.80;;
71600;SDS011;59446;52.192;4.628;2022-07-19T13:37:42;5.43;;;3.30;;
71600;SDS011;59446;52.192;4.628;2022-07-19T13:40:07;5.63;;;3.27;;
71600;SDS011;59446;52.192;4.628;2022-07-19T13:42:33;4.13;;;2.65;;
71600;SDS011;59446;52.192;4.628;2022-07-19T13:44:58;8.00;;;3.03;;
71600;SDS011;59446;52.192;4.628;2022-07-19T13:47:24;4.57;;;3.23;;
71600;SDS011;59446;52.192;4.628;2022-07-19T13:49:49;11.40;;;3.35;;
71600;SDS011;59446;52.192;4.628;2022-07-19T13:52:15;4.43;;;2.80;;
71600;SDS011;59446;52.192;4.628;2022-07-19T13:54:40;6.13;;;3.40;;
71600;SDS011;59446;52.192;4.628;2022-07-19T13:57:06;5.53;;;3.05;;
71600;SDS011;59446;52.192;4.628;2022-07-19T13:59:31;5.87;;;2.90;;
71600;SDS011;59446;52.192;4.628;2022-07-19T14:01:58;4.97;;;2.90;;
71600;SDS011;59446;52.192;4.628;2022-07-19T14:04:25;5.03;;;2.90;;
71600;SDS011;59446;52.192;4.628;2022-07-19T14:06:50;6.17;;;2.90;;
71600;SDS011;59446;52.192;4.628;2022-07-19T14:09:15;5.60;;;3.13;;
71600;SDS011;59446;52.192;4.628;2022-07-19T14:11:41;6.90;;;3.30;;
71600;SDS011;59446;52.192;4.628;2022-07-19T14:14:08;5.10;;;2.70;;
71600;SDS011;59446;52.192;4.628;2022-07-19T14:16:33;5.97;;;3.30;;
71600;SDS011;59446;52.192;4.628;2022-07-19T14:18:58;5.33;;;2.97;;
71600;SDS011;59446;52.192;4.628;2022-07-19T14:21:24;6.40;;;2.60;;
71600;SDS011;59446;52.192;4.628;2022-07-19T14:23:49;6.63;;;3.43;;
71600;SDS011;59446;52.192;4.628;2022-07-19T14:26:14;4.95;;;2.67;;
71600;SDS011;59446;52.192;4.628;2022-07-19T14:28:40;5.63;;;3.37;;
71600;SDS011;59446;52.192;4.628;2022-07-19T14:31:05;5.03;;;2.77;;
71600;SDS011;59446;52.192;4.628;2022-07-19T14:33:32;5.75;;;2.67;;
71600;SDS011;59446;52.192;4.628;2022-07-19T14:35:57;5.87;;;2.83;;
71600;SDS011;59446;52.192;4.628;2022-07-19T14:38:22;5.47;;;2.90;;
71600;SDS011;59446;52.192;4.628;2022-07-19T14:40:48;5.88;;;3.10;;
71600;SDS011;59446;52.192;4.628;2022-07-19T14:43:13;6.57;;;3.13;;
71600;SDS011;59446;52.192;4.628;2022-07-19T14:45:39;6.50;;;3.20;;
71600;SDS011;59446;52.192;4.628;2022-07-19T14:48:04;7.80;;;3.33;;
71600;SDS011;59446;52.192;4.628;2022-07-19T14:50:32;5.63;;;2.67;;
71600;SDS011;59446;52.192;4.628;2022-07-19T14:52:57;5.50;;;3.17;;
71600;SDS011;59446;52.192;4.628;2022-07-19T14:55:22;5.40;;;2.80;;
71600;SDS011;59446;52.192;4.628;2022-07-19T14:57:48;4.53;;;2.90;;
71600;SDS011;59446;52.192;4.628;2022-07-19T15:00:13;5.40;;;2.80;;
71600;SDS011;59446;52.192;4.628;2022-07-19T15:02:39;4.97;;;2.90;;
71600;SDS011;59446;52.192;4.628;2022-07-19T15:05:06;5.65;;;2.70;;
71600;SDS011;59446;52.192;4.628;2022-07-19T15:07:33;7.47;;;3.28;;
71600;SDS011;59446;52.192;4.628;2022-07-19T15:09:58;4.23;;;2.70;;
71600;SDS011;59446;52.192;4.628;2022-07-19T15:12:24;7.30;;;2.97;;
71600;SDS011;59446;52.192;4.628;2022-07-19T15:14:49;5.20;;;3.30;;
71600;SDS011;59446;52.192;4.628;2022-07-19T15:17:15;6.77;;;3.07;;